createdAt,value
2019-03-24T00:00:27.362Z,12.21
2019-03-24T00:02:59.785Z,12.20
2019-03-24T00:05:30.312Z,12.20
2019-03-24T00:08:00.843Z,12.19
2019-03-24T00:10:31.750Z,12.18
2019-03-24T00:13:03.759Z,12.19
2019-03-24T00:15:34.419Z,12.17
2019-03-24T00:18:04.956Z,12.16
2019-03-24T00:20:35.430Z,12.15
2019-03-24T00:23:05.917Z,12.14
2019-03-24T00:25:36.735Z,12.13
2019-03-24T00:28:07.309Z,12.11
2019-03-24T00:30:38.780Z,12.12
2019-03-24T00:33:09.285Z,12.10
2019-03-24T00:35:39.761Z,12.09
2019-03-24T00:38:10.610Z,12.05
2019-03-24T00:40:41.340Z,12.06
2019-03-24T00:43:11.751Z,12.06
2019-03-24T00:45:42.162Z,12.05
2019-03-24T00:48:12.641Z,12.06
2019-03-24T00:50:43.608Z,12.03
2019-03-24T00:53:14.099Z,11.98
2019-03-24T00:55:44.585Z,11.95
2019-03-24T00:58:15.446Z,11.92
2019-03-24T01:00:47.849Z,11.91
2019-03-24T01:03:18.760Z,11.88
2019-03-24T01:05:49.353Z,11.89
2019-03-24T01:08:19.848Z,11.89
2019-03-24T01:10:50.404Z,11.89
2019-03-24T01:13:21.377Z,11.90
2019-03-24T01:15:51.798Z,11.89
2019-03-24T01:18:23.082Z,11.87
2019-03-24T01:20:53.643Z,11.86
2019-03-24T01:23:24.236Z,11.86
2019-03-24T01:25:55.046Z,11.86
2019-03-24T01:28:25.644Z,11.87
2019-03-24T01:30:56.155Z,11.88
2019-03-24T01:33:26.678Z,11.90
2019-03-24T01:35:57.082Z,11.88
2019-03-24T01:38:27.547Z,11.88
2019-03-24T01:40:58.391Z,11.87
2019-03-24T01:43:29.265Z,11.85
2019-03-24T01:45:59.758Z,11.83
2019-03-24T01:48:31.494Z,11.81
2019-03-24T01:51:01.990Z,11.81
2019-03-24T01:53:32.373Z,11.81
2019-03-24T01:56:03.192Z,11.79
2019-03-24T01:58:33.594Z,11.78
2019-03-24T02:01:04.071Z,11.77
2019-03-24T02:03:34.554Z,11.75
2019-03-24T02:06:10.777Z,11.74
2019-03-24T02:08:41.273Z,11.72
2019-03-24T02:11:11.819Z,11.73
2019-03-24T02:13:42.346Z,11.72
2019-03-24T02:16:13.912Z,11.72
2019-03-24T02:18:44.487Z,11.71
2019-03-24T02:21:15.392Z,11.72
2019-03-24T02:23:45.788Z,11.72
2019-03-24T02:26:16.297Z,11.69
2019-03-24T02:28:46.708Z,11.69
2019-03-24T02:31:17.311Z,11.69
2019-03-24T02:33:47.820Z,11.67
2019-03-24T02:36:18.355Z,11.66
2019-03-24T02:38:48.767Z,11.62
2019-03-24T02:41:19.273Z,11.59
2019-03-24T02:43:49.857Z,11.60
2019-03-24T02:46:24.481Z,11.57
2019-03-24T02:48:52.638Z,11.56
2019-03-24T02:51:23.603Z,11.54
2019-03-24T02:53:54.089Z,11.52
2019-03-24T02:56:24.605Z,11.51
2019-03-24T02:58:56.182Z,11.51
2019-03-24T03:01:26.675Z,11.50
2019-03-24T03:03:57.606Z,11.49
2019-03-24T03:06:28.173Z,11.50
2019-03-24T03:08:58.731Z,11.49
2019-03-24T03:11:29.221Z,11.47
2019-03-24T03:14:00.052Z,11.46
2019-03-24T03:16:38.308Z,11.45
2019-03-24T03:19:02.872Z,11.44
2019-03-24T03:21:33.391Z,11.45
2019-03-24T03:24:03.947Z,11.42
2019-03-24T03:26:34.614Z,11.42
2019-03-24T03:29:05.164Z,11.41
2019-03-24T03:31:35.981Z,11.41
2019-03-24T03:34:07.082Z,11.40
2019-03-24T03:36:39.008Z,11.41
2019-03-24T03:39:09.615Z,11.41
2019-03-24T03:41:40.210Z,11.40
2019-03-24T03:44:10.689Z,11.40
2019-03-24T03:46:51.966Z,11.38
2019-03-24T03:49:13.440Z,11.38
2019-03-24T03:51:44.335Z,11.38
2019-03-24T03:54:15.071Z,11.39
2019-03-24T03:56:45.581Z,11.37
2019-03-24T03:59:16.400Z,11.37
2019-03-24T04:01:46.910Z,11.36
2019-03-24T04:04:17.462Z,11.36
2019-03-24T04:06:47.968Z,11.34
2019-03-24T04:09:18.455Z,11.32
2019-03-24T04:11:49.250Z,11.31
2019-03-24T04:14:19.753Z,11.30
2019-03-24T04:16:50.218Z,11.30
2019-03-24T04:19:20.667Z,11.27
2019-03-24T04:21:51.491Z,11.24
2019-03-24T04:24:22.313Z,11.20
2019-03-24T04:26:52.800Z,11.17
2019-03-24T04:29:23.322Z,11.19
2019-03-24T04:31:53.834Z,11.14
2019-03-24T04:34:24.627Z,11.04
2019-03-24T04:36:55.149Z,10.98
2019-03-24T04:39:25.626Z,10.93
2019-03-24T04:41:56.135Z,10.95
2019-03-24T04:44:26.732Z,10.94
2019-03-24T04:46:57.208Z,10.95
2019-03-24T04:49:27.725Z,10.97
2019-03-24T04:51:59.286Z,11.00
2019-03-24T04:54:29.985Z,11.02
2019-03-24T04:57:00.576Z,11.03
2019-03-24T04:59:31.117Z,11.04
2019-03-24T05:02:01.710Z,11.06
2019-03-24T05:04:32.319Z,11.08
2019-03-24T05:07:02.862Z,11.04
2019-03-24T05:09:33.362Z,10.93
2019-03-24T05:12:03.862Z,10.84
2019-03-24T05:14:34.443Z,10.75
2019-03-24T05:17:04.979Z,10.70
2019-03-24T05:19:35.425Z,10.71
2019-03-24T05:22:05.893Z,10.74
2019-03-24T05:24:36.766Z,10.77
2019-03-24T05:27:07.594Z,10.81
2019-03-24T05:29:37.947Z,10.83
2019-03-24T05:32:08.453Z,10.83
2019-03-24T05:34:39.271Z,10.79
2019-03-24T05:37:10.711Z,10.71
2019-03-24T05:39:41.566Z,10.71
2019-03-24T05:42:12.379Z,10.76
2019-03-24T05:44:43.036Z,10.78
2019-03-24T05:47:13.538Z,10.81
2019-03-24T05:49:44.058Z,10.84
2019-03-24T05:52:14.602Z,10.84
2019-03-24T05:54:45.064Z,10.86
2019-03-24T05:57:17.532Z,10.87
2019-03-24T05:59:48.014Z,10.88
2019-03-24T06:02:18.802Z,10.89
2019-03-24T06:04:49.314Z,10.82
2019-03-24T06:07:21.041Z,10.77
2019-03-24T06:09:51.535Z,10.73
2019-03-24T06:12:22.052Z,10.74
2019-03-24T06:14:52.582Z,10.78
2019-03-24T06:17:23.069Z,10.82
2019-03-24T06:19:53.587Z,10.85
2019-03-24T06:22:24.150Z,10.87
2019-03-24T06:24:54.681Z,10.90
2019-03-24T06:27:26.017Z,10.93
2019-03-24T06:29:56.507Z,10.93
2019-03-24T06:32:27.000Z,10.94
2019-03-24T06:34:57.564Z,10.95
2019-03-24T06:37:28.146Z,10.96
2019-03-24T06:39:58.963Z,10.94
2019-03-24T06:42:29.944Z,10.87
2019-03-24T06:45:01.061Z,10.78
2019-03-24T06:47:31.608Z,10.73
2019-03-24T06:50:02.577Z,10.67
2019-03-24T06:52:33.245Z,10.62
2019-03-24T06:55:04.469Z,10.58
2019-03-24T06:57:35.065Z,10.63
2019-03-24T07:00:06.191Z,10.68
2019-03-24T07:02:37.131Z,10.75
2019-03-24T07:05:09.183Z,10.81
2019-03-24T07:07:40.010Z,10.84
2019-03-24T07:10:11.136Z,10.88
2019-03-24T07:12:41.825Z,10.91
2019-03-24T07:15:14.785Z,10.93
2019-03-24T07:17:45.584Z,10.95
2019-03-24T07:20:16.142Z,10.97
2019-03-24T07:22:46.846Z,11.00
2019-03-24T07:25:17.476Z,11.01
2019-03-24T07:27:47.996Z,11.04
2019-03-24T07:30:19.970Z,11.06
2019-03-24T07:32:50.566Z,11.10
2019-03-24T07:35:22.172Z,11.12
2019-03-24T07:37:52.739Z,11.16
2019-03-24T07:40:23.756Z,11.21
2019-03-24T07:42:54.247Z,11.23
2019-03-24T07:45:24.841Z,11.24
2019-03-24T07:47:56.762Z,11.23
2019-03-24T07:50:27.600Z,11.19
2019-03-24T07:52:58.387Z,11.16
2019-03-24T07:55:28.822Z,11.13
2019-03-24T07:57:59.712Z,11.07
2019-03-24T08:00:35.157Z,11.02
2019-03-24T08:03:05.816Z,10.98
2019-03-24T08:05:36.372Z,10.93
2019-03-24T08:08:07.649Z,10.92
2019-03-24T08:10:38.159Z,10.90
2019-03-24T08:13:08.565Z,10.90
2019-03-24T08:15:39.154Z,10.95
2019-03-24T08:18:09.727Z,10.93
2019-03-24T08:20:40.218Z,10.91
2019-03-24T08:23:10.694Z,10.86
2019-03-24T08:25:41.671Z,10.89
2019-03-24T08:28:12.729Z,10.94
2019-03-24T08:30:43.228Z,10.94
2019-03-24T08:33:15.032Z,10.95
2019-03-24T08:35:45.542Z,10.97
2019-03-24T08:38:16.935Z,11.03
2019-03-24T08:40:47.435Z,11.12
2019-03-24T08:43:18.015Z,11.18
2019-03-24T08:45:48.788Z,11.22
2019-03-24T08:48:19.319Z,11.21
2019-03-24T08:50:49.745Z,11.21
2019-03-24T08:53:20.472Z,11.22
2019-03-24T08:55:50.906Z,11.22
2019-03-24T08:58:21.922Z,11.20
2019-03-24T09:00:52.880Z,11.21
2019-03-24T09:03:23.708Z,11.22
2019-03-24T09:05:54.573Z,11.23
2019-03-24T09:08:25.065Z,11.24
2019-03-24T09:10:55.594Z,11.27
2019-03-24T09:13:26.631Z,11.26
2019-03-24T09:15:57.399Z,11.28
2019-03-24T09:18:27.894Z,11.25
2019-03-24T09:20:58.446Z,11.30
2019-03-24T09:23:29.082Z,11.32
2019-03-24T09:25:59.974Z,11.38
2019-03-24T09:28:30.489Z,11.47
2019-03-24T09:31:00.975Z,11.57
2019-03-24T09:33:32.915Z,11.61
2019-03-24T09:36:03.494Z,11.63
2019-03-24T09:38:34.000Z,11.70
2019-03-24T09:41:05.455Z,11.75
2019-03-24T09:43:36.302Z,11.74
2019-03-24T09:46:07.114Z,11.69
2019-03-24T09:48:37.926Z,11.74
2019-03-24T09:51:09.399Z,11.78
2019-03-24T09:53:39.833Z,11.84
2019-03-24T09:56:10.381Z,11.92
2019-03-24T09:58:41.848Z,11.92
2019-03-24T10:01:12.351Z,11.92
2019-03-24T10:03:42.751Z,11.96
2019-03-24T10:06:13.376Z,11.97
2019-03-24T10:08:47.200Z,12.05
2019-03-24T10:11:17.625Z,12.08
2019-03-24T10:13:48.281Z,12.06
2019-03-24T10:16:18.720Z,12.08
2019-03-24T10:18:49.117Z,12.10
2019-03-24T10:21:19.713Z,12.10
2019-03-24T10:23:50.782Z,12.16
2019-03-24T10:26:21.476Z,12.27
2019-03-24T10:28:52.121Z,12.29
2019-03-24T10:31:22.862Z,12.24
2019-03-24T10:33:53.287Z,12.20
2019-03-24T10:36:24.049Z,12.23
2019-03-24T10:38:54.409Z,12.26
2019-03-24T10:41:25.176Z,12.31
2019-03-24T10:43:55.835Z,12.38
2019-03-24T10:46:26.327Z,12.44
2019-03-24T10:48:57.046Z,12.52
2019-03-24T10:51:27.504Z,12.65
2019-03-24T10:53:58.049Z,12.73
2019-03-24T10:56:28.782Z,12.79
2019-03-24T10:58:59.250Z,12.87
2019-03-24T11:01:29.927Z,12.93
2019-03-24T11:04:00.283Z,12.90
2019-03-24T11:06:31.147Z,12.89
2019-03-24T11:09:02.069Z,12.98
2019-03-24T11:11:35.535Z,13.03
2019-03-24T11:14:06.059Z,13.15
2019-03-24T11:16:36.944Z,13.31
2019-03-24T11:19:07.413Z,13.45
2019-03-24T11:21:37.916Z,13.56
2019-03-24T11:24:12.288Z,13.58
2019-03-24T11:26:42.959Z,13.63
2019-03-24T11:29:13.408Z,13.84
2019-03-24T11:31:44.876Z,14.03
2019-03-24T11:34:16.779Z,14.13
2019-03-24T11:36:48.016Z,14.16
2019-03-24T11:39:19.363Z,14.31
2019-03-24T11:41:49.971Z,14.38
2019-03-24T11:44:20.642Z,14.46
2019-03-24T11:46:51.162Z,14.53
2019-03-24T11:49:21.669Z,14.52
2019-03-24T11:51:52.185Z,14.55
2019-03-24T11:54:22.694Z,14.66
2019-03-24T11:56:53.534Z,14.77
2019-03-24T11:59:24.060Z,14.88
2019-03-24T12:01:54.653Z,14.93
2019-03-24T12:04:25.184Z,15.04
2019-03-24T12:06:55.693Z,15.10
2019-03-24T12:09:26.180Z,15.17
2019-03-24T12:11:57.058Z,15.31
2019-03-24T12:14:27.567Z,15.33
2019-03-24T12:16:59.162Z,15.28
2019-03-24T12:19:29.709Z,15.35
2019-03-24T12:22:01.671Z,15.30
2019-03-24T12:24:32.527Z,15.19
2019-03-24T12:27:06.110Z,15.01
2019-03-24T12:29:36.703Z,14.83
2019-03-24T12:32:07.221Z,14.73
2019-03-24T12:34:38.115Z,14.73
2019-03-24T12:37:08.600Z,14.76
2019-03-24T12:39:39.016Z,14.81
2019-03-24T12:42:10.611Z,14.84
2019-03-24T12:44:41.549Z,14.95
2019-03-24T12:47:12.160Z,14.98
2019-03-24T12:49:42.643Z,14.97
2019-03-24T12:52:13.342Z,14.98
2019-03-24T12:54:43.972Z,15.13
2019-03-24T12:57:14.572Z,15.40
2019-03-24T12:59:45.465Z,15.49
2019-03-24T13:02:15.914Z,15.57
2019-03-24T13:04:46.594Z,15.73
2019-03-24T13:07:17.097Z,15.79
2019-03-24T13:09:47.879Z,15.82
2019-03-24T13:12:18.414Z,15.90
2019-03-24T13:14:49.503Z,15.94
2019-03-24T13:17:20.804Z,15.94
2019-03-24T13:19:51.532Z,16.03
2019-03-24T13:22:21.907Z,16.08
2019-03-24T13:24:52.697Z,16.22
2019-03-24T13:27:23.258Z,16.37
2019-03-24T13:29:54.245Z,16.40
2019-03-24T13:32:25.617Z,16.34
2019-03-24T13:34:56.117Z,16.32
2019-03-24T13:37:27.384Z,16.27
2019-03-24T13:39:58.456Z,15.95
2019-03-24T13:42:29.103Z,16.01
2019-03-24T13:44:59.540Z,15.92
2019-03-24T13:47:30.125Z,16.10
2019-03-24T13:50:00.729Z,16.48
2019-03-24T13:52:31.277Z,16.60
2019-03-24T13:55:01.972Z,16.51
2019-03-24T13:57:32.532Z,16.16
2019-03-24T14:00:02.988Z,15.70
2019-03-24T14:02:35.183Z,15.37
2019-03-24T14:05:06.078Z,15.17
2019-03-24T14:07:36.665Z,15.20
2019-03-24T14:10:07.623Z,15.16
2019-03-24T14:12:39.402Z,15.21
2019-03-24T14:15:10.354Z,15.11
2019-03-24T14:17:40.890Z,14.94
2019-03-24T14:20:12.004Z,14.92
2019-03-24T14:22:42.553Z,15.00
2019-03-24T14:25:13.470Z,15.00
2019-03-24T14:27:43.938Z,14.87
2019-03-24T14:30:14.762Z,14.85
2019-03-24T14:32:45.260Z,14.92
2019-03-24T14:35:16.608Z,14.96
2019-03-24T14:37:47.580Z,15.02
2019-03-24T14:40:18.229Z,15.06
2019-03-24T14:42:48.681Z,15.06
2019-03-24T14:45:19.094Z,15.07
2019-03-24T14:47:49.668Z,15.12
2019-03-24T14:50:20.193Z,15.36
2019-03-24T14:52:50.642Z,15.71
2019-03-24T14:55:21.168Z,15.63
2019-03-24T14:57:51.919Z,15.63
2019-03-24T15:00:31.030Z,15.51
2019-03-24T15:03:01.573Z,15.32
2019-03-24T15:05:32.090Z,15.36
2019-03-24T15:08:03.315Z,15.37
2019-03-24T15:10:34.817Z,15.53
2019-03-24T15:13:06.356Z,15.51
2019-03-24T15:15:37.359Z,15.62
2019-03-24T15:18:07.894Z,15.55
2019-03-24T15:20:38.380Z,15.33
2019-03-24T15:23:08.895Z,15.28
2019-03-24T15:25:39.387Z,15.43
2019-03-24T15:28:09.964Z,15.62
2019-03-24T15:30:40.445Z,15.78
2019-03-24T15:33:10.942Z,15.73
2019-03-24T15:35:41.842Z,16.01
2019-03-24T15:38:15.083Z,15.92
2019-03-24T15:40:49.440Z,15.88
2019-03-24T15:43:19.467Z,15.68
2019-03-24T15:45:55.924Z,15.69
2019-03-24T15:48:26.412Z,15.60
2019-03-24T15:51:00.395Z,15.52
2019-03-24T15:53:31.022Z,15.71
2019-03-24T15:56:01.591Z,15.79
2019-03-24T15:58:32.088Z,15.96
2019-03-24T16:01:02.908Z,16.05
2019-03-24T16:03:33.857Z,16.08
2019-03-24T16:06:05.405Z,16.07
2019-03-24T16:08:36.030Z,15.91
2019-03-24T16:11:06.607Z,15.94
2019-03-24T16:13:37.251Z,15.93
2019-03-24T16:16:07.734Z,15.86
2019-03-24T16:18:38.323Z,15.79
2019-03-24T16:21:09.128Z,15.62
2019-03-24T16:23:40.073Z,15.45
2019-03-24T16:26:11.530Z,15.48
2019-03-24T16:28:42.370Z,15.47
2019-03-24T16:31:12.924Z,15.40
2019-03-24T16:33:43.456Z,15.40
2019-03-24T16:36:14.046Z,15.26
2019-03-24T16:38:49.026Z,15.28
2019-03-24T16:41:17.278Z,15.27
2019-03-24T16:43:47.843Z,15.18
2019-03-24T16:46:19.452Z,15.17
2019-03-24T16:48:50.200Z,15.16
2019-03-24T16:51:21.007Z,15.14
2019-03-24T16:53:51.608Z,15.07
2019-03-24T16:56:22.053Z,14.91
2019-03-24T16:58:53.454Z,14.77
2019-03-24T17:01:23.990Z,14.52
2019-03-24T17:03:55.801Z,14.34
2019-03-24T17:06:27.499Z,14.00
2019-03-24T17:08:58.498Z,13.82
2019-03-24T17:11:28.981Z,13.66
2019-03-24T17:13:59.489Z,13.56
2019-03-24T17:16:29.975Z,13.30
2019-03-24T17:19:00.708Z,13.17
2019-03-24T17:21:32.473Z,13.15
2019-03-24T17:24:02.915Z,13.01
2019-03-24T17:26:33.388Z,12.91
2019-03-24T17:29:04.313Z,12.84
2019-03-24T17:31:35.095Z,12.72
2019-03-24T17:34:05.715Z,12.68
2019-03-24T17:36:36.161Z,12.58
2019-03-24T17:39:08.376Z,12.49
2019-03-24T17:41:39.148Z,12.44
2019-03-24T17:44:09.767Z,12.41
2019-03-24T17:46:40.281Z,12.39
2019-03-24T17:49:10.799Z,12.34
2019-03-24T17:51:41.464Z,12.32
2019-03-24T17:54:12.125Z,12.31
2019-03-24T17:56:43.050Z,12.25
2019-03-24T17:59:14.555Z,12.21
2019-03-24T18:01:45.157Z,12.12
2019-03-24T18:04:24.838Z,12.08
2019-03-24T18:06:51.365Z,12.03
2019-03-24T18:09:21.862Z,12.00
2019-03-24T18:11:53.937Z,11.98
2019-03-24T18:14:24.583Z,12.00
2019-03-24T18:16:55.115Z,11.93
2019-03-24T18:19:25.603Z,11.90
2019-03-24T18:21:55.990Z,11.84
2019-03-24T18:24:26.494Z,11.81
2019-03-24T18:26:56.976Z,11.79
2019-03-24T18:29:27.582Z,11.77
2019-03-24T18:31:57.983Z,11.70
2019-03-24T18:34:28.474Z,11.67
2019-03-24T18:36:59.393Z,11.67
2019-03-24T18:39:29.824Z,11.66
2019-03-24T18:42:00.413Z,11.63
2019-03-24T18:44:31.311Z,11.59
2019-03-24T18:47:01.955Z,11.60
2019-03-24T18:49:32.390Z,11.53
2019-03-24T18:52:02.926Z,11.52
2019-03-24T18:54:34.594Z,11.50
2019-03-24T18:57:05.226Z,11.50
2019-03-24T18:59:35.767Z,11.45
2019-03-24T19:02:06.552Z,11.41
2019-03-24T19:04:37.022Z,11.37
2019-03-24T19:07:07.488Z,11.32
2019-03-24T19:09:38.025Z,11.27
2019-03-24T19:12:08.519Z,11.22
2019-03-24T19:14:40.185Z,11.19
2019-03-24T19:17:10.793Z,11.19
2019-03-24T19:19:43.637Z,11.16
2019-03-24T19:22:14.224Z,11.11
2019-03-24T19:24:45.067Z,11.06
2019-03-24T19:27:15.771Z,11.07
2019-03-24T19:29:46.402Z,11.06
2019-03-24T19:32:17.059Z,11.03
2019-03-24T19:34:48.964Z,11.00
2019-03-24T19:37:20.074Z,10.98
2019-03-24T19:39:50.960Z,10.94
2019-03-24T19:42:21.410Z,10.89
2019-03-24T19:44:52.030Z,10.84
2019-03-24T19:47:22.631Z,10.82
2019-03-24T19:49:53.430Z,10.81
2019-03-24T19:52:23.942Z,10.78
2019-03-24T19:54:54.453Z,10.77
2019-03-24T19:57:24.932Z,10.72
2019-03-24T19:59:55.369Z,10.68
2019-03-24T20:02:25.789Z,10.68
2019-03-24T20:04:56.252Z,10.63
2019-03-24T20:07:26.744Z,10.62
2019-03-24T20:09:57.262Z,10.60
2019-03-24T20:12:27.832Z,10.60
2019-03-24T20:14:58.349Z,10.55
2019-03-24T20:17:28.895Z,10.53
2019-03-24T20:19:59.677Z,10.52
2019-03-24T20:22:30.171Z,10.52
2019-03-24T20:25:01.415Z,10.50
2019-03-24T20:27:31.834Z,10.48
2019-03-24T20:30:02.387Z,10.45
2019-03-24T20:32:34.430Z,10.43
2019-03-24T20:35:06.010Z,10.41
2019-03-24T20:37:36.735Z,10.37
2019-03-24T20:40:07.927Z,10.33
2019-03-24T20:42:38.657Z,10.26
2019-03-24T20:45:13.066Z,10.23
2019-03-24T20:47:43.659Z,10.20
2019-03-24T20:50:14.502Z,10.17
2019-03-24T20:52:45.031Z,10.16
2019-03-24T20:55:15.630Z,10.10
2019-03-24T20:57:46.210Z,10.05
2019-03-24T21:00:18.725Z,10.00
2019-03-24T21:02:49.396Z,9.92
2019-03-24T21:05:20.142Z,9.90
2019-03-24T21:07:51.096Z,9.86
2019-03-24T21:10:24.028Z,9.88
2019-03-24T21:12:53.757Z,9.83
2019-03-24T21:15:24.353Z,9.79
2019-03-24T21:17:55.465Z,9.76
2019-03-24T21:20:25.869Z,9.75
2019-03-24T21:22:57.743Z,9.71
2019-03-24T21:25:28.281Z,9.63
2019-03-24T21:27:59.316Z,9.58
2019-03-24T21:30:38.212Z,9.58
2019-03-24T21:33:08.803Z,9.53
2019-03-24T21:35:39.754Z,9.57
2019-03-24T21:38:10.635Z,9.53
2019-03-24T21:40:41.479Z,9.50
2019-03-24T21:43:12.249Z,9.53
2019-03-24T21:45:42.756Z,9.53
2019-03-24T21:48:13.209Z,9.49
2019-03-24T21:50:43.735Z,9.48
2019-03-24T21:53:14.127Z,9.48
2019-03-24T21:55:44.920Z,9.44
2019-03-24T21:58:15.431Z,9.41
2019-03-24T22:00:46.267Z,9.38
2019-03-24T22:03:16.691Z,9.38
2019-03-24T22:05:47.229Z,9.35
2019-03-24T22:08:17.726Z,9.35
2019-03-24T22:10:48.256Z,9.34
2019-03-24T22:13:18.851Z,9.30
2019-03-24T22:15:49.628Z,9.28
2019-03-24T22:18:19.950Z,9.26
2019-03-24T22:20:50.487Z,9.22
2019-03-24T22:23:20.997Z,9.18
2019-03-24T22:25:51.581Z,9.17
2019-03-24T22:28:22.071Z,9.15
2019-03-24T22:30:52.606Z,9.11
2019-03-24T22:33:23.143Z,9.03
2019-03-24T22:35:53.673Z,9.01
2019-03-24T22:38:24.156Z,9.01
2019-03-24T22:40:55.435Z,8.98
2019-03-24T22:43:26.164Z,8.95
2019-03-24T22:45:56.733Z,8.94
2019-03-24T22:48:27.547Z,8.90
2019-03-24T22:50:58.093Z,8.89
2019-03-24T22:53:28.498Z,8.88
2019-03-24T22:55:59.052Z,8.85
2019-03-24T22:58:29.811Z,8.80
2019-03-24T23:01:02.736Z,8.82
2019-03-24T23:03:34.922Z,8.84
2019-03-24T23:06:07.067Z,8.80
2019-03-24T23:08:37.512Z,8.77
2019-03-24T23:11:08.102Z,8.76
2019-03-24T23:13:38.593Z,8.72
2019-03-24T23:16:09.144Z,8.70
2019-03-24T23:18:39.725Z,8.71
2019-03-24T23:21:11.949Z,8.71
2019-03-24T23:23:42.442Z,8.67
2019-03-24T23:26:13.731Z,8.61
2019-03-24T23:28:44.762Z,8.58
2019-03-24T23:31:15.236Z,8.60
2019-03-24T23:33:46.222Z,8.59
2019-03-24T23:36:16.680Z,8.52
2019-03-24T23:38:47.150Z,8.49
2019-03-24T23:41:17.775Z,8.48
2019-03-24T23:43:48.362Z,8.47
2019-03-24T23:46:19.174Z,8.51
2019-03-24T23:48:49.677Z,8.51
2019-03-24T23:51:20.178Z,8.51
2019-03-24T23:53:50.613Z,8.46
2019-03-24T23:56:21.190Z,8.44
2019-03-24T23:58:52.155Z,8.44
